createdAt,value
2022-09-25T00:01:00.380Z,95353.56
2022-09-25T00:03:28.583Z,95347.81
2022-09-25T00:06:05.515Z,95346.63
2022-09-25T00:08:33.264Z,95348.59
2022-09-25T00:10:59.879Z,95346.31
2022-09-25T00:13:26.794Z,95331.63
2022-09-25T00:15:56.078Z,95329.03
2022-09-25T00:18:43.243Z,95340.97
2022-09-25T00:21:14.618Z,95344.56
2022-09-25T00:23:44.767Z,95346.06
2022-09-25T00:26:13.369Z,95345.41
2022-09-25T00:28:41.118Z,95335.59
2022-09-25T00:31:09.450Z,95342.91
2022-09-25T00:33:37.055Z,95322.16
2022-09-25T00:36:09.266Z,95343.00
2022-09-25T00:38:37.120Z,95336.78
2022-09-25T00:41:06.149Z,95336.84
2022-09-25T00:43:40.067Z,95329.59
2022-09-25T00:46:25.403Z,95320.81
2022-09-25T00:48:58.539Z,95328.06
2022-09-25T00:51:30.413Z,95326.78
2022-09-25T00:54:01.331Z,95333.34
2022-09-25T00:56:34.609Z,95328.72
2022-09-25T00:59:01.244Z,95314.91
2022-09-25T01:01:27.990Z,95318.03
2022-09-25T01:03:56.111Z,95324.53
2022-09-25T01:06:26.212Z,95329.09
2022-09-25T01:08:53.116Z,95313.94
2022-09-25T01:11:19.766Z,95320.09
2022-09-25T01:13:46.485Z,95300.69
2022-09-25T01:16:27.306Z,95304.75
2022-09-25T01:18:53.870Z,95314.38
2022-09-25T01:21:38.650Z,95316.84
2022-09-25T01:24:19.133Z,95313.34
2022-09-25T01:27:20.109Z,95322.56
2022-09-25T01:30:11.572Z,95319.84
2022-09-25T01:32:57.695Z,95294.28
2022-09-25T01:35:33.407Z,95318.47
2022-09-25T01:38:31.573Z,95321.34
2022-09-25T01:41:09.951Z,95317.63
2022-09-25T01:43:57.672Z,95309.09
2022-09-25T01:46:29.134Z,95322.06
2022-09-25T01:49:01.940Z,95322.56
2022-09-25T01:51:51.822Z,95316.16
2022-09-25T01:54:24.940Z,95309.72
2022-09-25T01:56:57.556Z,95327.84
2022-09-25T01:59:36.110Z,95329.44
2022-09-25T02:02:06.898Z,95315.91
2022-09-25T02:04:41.898Z,95309.31
2022-09-25T02:07:12.949Z,95316.81
2022-09-25T02:09:45.936Z,95314.16
2022-09-25T02:12:31.273Z,95295.97
2022-09-25T02:15:03.619Z,95316.81
2022-09-25T02:17:53.465Z,95321.47
2022-09-25T02:20:33.323Z,95329.47
2022-09-25T02:23:11.452Z,95324.88
2022-09-25T02:25:45.190Z,95325.66
2022-09-25T02:28:12.089Z,95329.63
2022-09-25T02:30:38.786Z,95328.34
2022-09-25T02:33:05.410Z,95316.44
2022-09-25T02:35:33.090Z,95332.25
2022-09-25T02:38:00.449Z,95331.00
2022-09-25T02:40:41.842Z,95320.06
2022-09-25T02:43:31.472Z,95305.88
2022-09-25T02:46:35.710Z,95315.19
2022-09-25T02:49:40.299Z,95327.69
2022-09-25T02:52:11.412Z,95320.06
2022-09-25T02:54:45.758Z,95313.88
2022-09-25T02:57:32.371Z,95317.34
2022-09-25T03:00:04.614Z,95304.03
2022-09-25T03:02:32.893Z,95313.94
2022-09-25T03:05:01.212Z,95317.84
2022-09-25T03:07:27.995Z,95308.69
2022-09-25T03:09:57.887Z,95307.56
2022-09-25T03:12:24.522Z,95303.81
2022-09-25T03:14:51.115Z,95317.63
2022-09-25T03:17:17.696Z,95319.56
2022-09-25T03:19:44.297Z,95319.03
2022-09-25T03:22:12.106Z,95328.34
2022-09-25T03:24:38.813Z,95313.72
2022-09-25T03:27:05.400Z,95291.81
2022-09-25T03:29:32.249Z,95311.94
2022-09-25T03:31:58.899Z,95308.09
2022-09-25T03:34:25.599Z,95301.25
2022-09-25T03:36:52.212Z,95314.13
2022-09-25T03:39:18.873Z,95295.50
2022-09-25T03:41:45.634Z,95316.75
2022-09-25T03:44:12.450Z,95320.81
2022-09-25T03:46:39.335Z,95320.03
2022-09-25T03:49:06.109Z,95303.97
2022-09-25T03:51:33.673Z,95310.91
2022-09-25T03:54:00.273Z,95324.94
2022-09-25T03:56:29.026Z,95323.56
2022-09-25T03:58:56.230Z,95324.44
2022-09-25T04:01:24.956Z,95328.31
2022-09-25T04:03:52.040Z,95334.22
2022-09-25T04:06:22.657Z,95331.13
2022-09-25T04:08:50.091Z,95331.13
2022-09-25T04:11:18.236Z,95325.47
2022-09-25T04:13:45.564Z,95317.19
2022-09-25T04:16:13.633Z,95330.03
2022-09-25T04:18:42.954Z,95330.66
2022-09-25T04:21:11.972Z,95336.34
2022-09-25T04:23:39.217Z,95333.84
2022-09-25T04:26:07.537Z,95315.75
2022-09-25T04:28:35.651Z,95325.19
2022-09-25T04:31:03.868Z,95335.38
2022-09-25T04:33:48.820Z,95320.88
2022-09-25T04:36:18.164Z,95334.97
2022-09-25T04:38:45.026Z,95336.09
2022-09-25T04:41:11.849Z,95342.28
2022-09-25T04:43:40.949Z,95334.50
2022-09-25T04:46:08.921Z,95348.31
2022-09-25T04:48:36.030Z,95343.06
2022-09-25T04:51:03.823Z,95336.16
2022-09-25T04:53:31.674Z,95338.31
2022-09-25T04:56:03.190Z,95331.56
2022-09-25T04:58:29.975Z,95344.16
2022-09-25T05:01:00.976Z,95338.22
2022-09-25T05:03:27.871Z,95333.53
2022-09-25T05:05:54.478Z,95335.91
2022-09-25T05:08:21.066Z,95335.50
2022-09-25T05:10:47.686Z,95338.81
2022-09-25T05:13:14.568Z,95327.84
2022-09-25T05:15:41.146Z,95327.06
2022-09-25T05:18:15.829Z,95319.22
2022-09-25T05:20:42.719Z,95326.13
2022-09-25T05:23:09.304Z,95332.25
2022-09-25T05:25:36.018Z,95318.97
2022-09-25T05:28:03.171Z,95329.22
2022-09-25T05:30:31.996Z,95327.88
2022-09-25T05:32:59.236Z,95332.97
2022-09-25T05:35:29.819Z,95334.88
2022-09-25T05:37:56.470Z,95328.13
2022-09-25T05:40:24.221Z,95323.31
2022-09-25T05:42:52.129Z,95342.53
2022-09-25T05:45:20.884Z,95329.97
2022-09-25T05:47:47.485Z,95334.16
2022-09-25T05:50:17.952Z,95334.31
2022-09-25T05:52:44.573Z,95327.56
2022-09-25T05:55:11.226Z,95331.59
2022-09-25T05:57:38.344Z,95337.66
2022-09-25T06:00:08.861Z,95340.41
2022-09-25T06:02:35.831Z,95329.38
2022-09-25T06:05:02.473Z,95330.47
2022-09-25T06:07:29.095Z,95323.47
2022-09-25T06:09:55.690Z,95320.97
2022-09-25T06:12:24.916Z,95332.53
2022-09-25T06:14:52.576Z,95331.03
2022-09-25T06:17:20.058Z,95331.28
2022-09-25T06:19:46.964Z,95332.53
2022-09-25T06:22:13.905Z,95339.16
2022-09-25T06:24:40.794Z,95340.53
2022-09-25T06:27:08.239Z,95337.03
2022-09-25T06:29:35.329Z,95338.81
2022-09-25T06:32:03.190Z,95336.00
2022-09-25T06:34:29.877Z,95339.66
2022-09-25T06:36:56.521Z,95330.22
2022-09-25T06:39:23.074Z,95321.09
2022-09-25T06:41:53.553Z,95335.19
2022-09-25T06:44:21.132Z,95328.38
2022-09-25T06:46:54.580Z,95326.28
2022-09-25T06:49:22.006Z,95339.88
2022-09-25T06:51:51.070Z,95332.47
2022-09-25T06:54:18.238Z,95327.28
2022-09-25T06:56:49.468Z,95337.31
2022-09-25T06:59:16.446Z,95336.41
2022-09-25T07:01:43.226Z,95344.19
2022-09-25T07:04:10.181Z,95344.00
2022-09-25T07:06:37.419Z,95349.28
2022-09-25T07:09:04.337Z,95347.38
2022-09-25T07:11:34.211Z,95340.03
2022-09-25T07:14:01.071Z,95355.16
2022-09-25T07:16:30.258Z,95363.03
2022-09-25T07:19:02.837Z,95351.41
2022-09-25T07:21:32.220Z,95363.66
2022-09-25T07:23:59.158Z,95364.50
2022-09-25T07:26:28.491Z,95355.91
2022-09-25T07:29:04.229Z,95360.16
2022-09-25T07:31:33.257Z,95354.00
2022-09-25T07:34:03.048Z,95347.84
2022-09-25T07:36:29.891Z,95330.53
2022-09-25T07:38:56.538Z,95339.25
2022-09-25T07:41:23.872Z,95330.13
2022-09-25T07:44:17.577Z,95326.84
2022-09-25T07:46:43.643Z,95319.94
2022-09-25T07:49:10.456Z,95307.16
2022-09-25T07:51:37.223Z,95309.00
2022-09-25T07:54:04.123Z,95306.44
2022-09-25T07:56:30.804Z,95295.59
2022-09-25T07:58:57.515Z,95290.34
2022-09-25T08:01:24.433Z,95306.88
2022-09-25T08:03:51.331Z,95304.50
2022-09-25T08:06:18.174Z,95301.38
2022-09-25T08:08:44.992Z,95309.09
2022-09-25T08:11:14.571Z,95303.88
2022-09-25T08:13:42.699Z,95289.63
2022-09-25T08:16:12.362Z,95294.22
2022-09-25T08:18:41.951Z,95291.72
2022-09-25T08:21:10.391Z,95288.59
2022-09-25T08:23:37.194Z,95287.16
2022-09-25T08:26:03.947Z,95288.03
2022-09-25T08:28:30.725Z,95282.97
2022-09-25T08:31:03.368Z,95279.84
2022-09-25T08:33:31.276Z,95270.63
2022-09-25T08:36:07.743Z,95266.31
2022-09-25T08:38:34.611Z,95262.06
2022-09-25T08:41:16.882Z,95266.41
2022-09-25T08:43:48.845Z,95250.44
2022-09-25T08:46:41.355Z,95259.00
2022-09-25T08:49:11.527Z,95266.75
2022-09-25T08:51:50.026Z,95279.81
2022-09-25T08:54:22.931Z,95273.59
2022-09-25T08:56:53.586Z,95271.09
2022-09-25T08:59:32.978Z,95262.59
2022-09-25T09:02:11.431Z,95251.75
2022-09-25T09:04:45.396Z,95243.19
2022-09-25T09:07:27.685Z,95247.44
2022-09-25T09:10:21.766Z,95240.59
2022-09-25T09:12:54.278Z,95245.25
2022-09-25T09:15:39.707Z,95223.44
2022-09-25T09:18:21.929Z,95162.00
2022-09-25T09:20:53.749Z,95230.31
2022-09-25T09:23:32.886Z,95234.28
2022-09-25T09:26:02.334Z,95231.00
2022-09-25T09:28:59.598Z,95234.75
2022-09-25T09:32:04.530Z,95223.50
2022-09-25T09:35:06.841Z,95221.72
2022-09-25T09:37:51.647Z,95218.75
2022-09-25T09:40:39.796Z,95218.88
2022-09-25T09:43:34.914Z,95211.81
2022-09-25T09:46:23.069Z,95212.72
2022-09-25T09:49:04.976Z,95198.78
2022-09-25T09:51:47.349Z,95203.22
2022-09-25T09:54:25.245Z,95206.84
2022-09-25T09:56:55.521Z,95189.38
2022-09-25T09:59:40.112Z,95138.78
2022-09-25T10:02:29.782Z,95192.94
2022-09-25T10:05:04.010Z,95179.53
2022-09-25T10:07:34.227Z,95179.34
2022-09-25T10:10:02.055Z,95185.81
2022-09-25T10:12:33.443Z,95183.56
2022-09-25T10:15:07.530Z,95158.44
2022-09-25T10:17:38.153Z,95178.06
2022-09-25T10:20:17.559Z,95176.97
2022-09-25T10:22:46.882Z,95168.31
2022-09-25T10:25:14.092Z,95164.81
2022-09-25T10:27:49.202Z,95159.03
2022-09-25T10:30:22.077Z,95139.91
2022-09-25T10:33:11.832Z,95136.91
2022-09-25T10:35:38.545Z,95150.19
2022-09-25T10:38:16.869Z,95138.34
2022-09-25T10:40:47.854Z,95142.66
2022-09-25T10:43:14.941Z,95133.53
2022-09-25T10:45:41.926Z,95141.53
2022-09-25T10:48:55.559Z,95148.97
2022-09-25T10:51:23.805Z,95142.59
2022-09-25T10:54:11.232Z,95132.03
2022-09-25T10:56:39.282Z,95146.63
2022-09-25T10:59:23.475Z,95118.63
2022-09-25T11:01:53.895Z,95141.47
2022-09-25T11:04:29.820Z,95106.66
2022-09-25T11:07:08.259Z,95127.59
2022-09-25T11:09:36.940Z,95113.84
2022-09-25T11:12:13.966Z,95105.72
2022-09-25T11:14:55.478Z,95114.94
2022-09-25T11:17:43.101Z,95116.34
2022-09-25T11:20:16.776Z,95113.25
2022-09-25T11:22:55.511Z,95122.50
2022-09-25T11:25:33.641Z,95106.22
2022-09-25T11:28:35.892Z,95108.03
2022-09-25T11:31:16.150Z,95099.63
2022-09-25T11:33:53.089Z,95092.94
2022-09-25T11:36:26.309Z,95077.38
2022-09-25T11:39:19.472Z,95081.00
2022-09-25T11:41:52.003Z,95083.09
2022-09-25T11:44:35.081Z,95080.19
2022-09-25T11:47:12.550Z,95066.47
2022-09-25T11:49:41.536Z,95067.19
2022-09-25T11:52:28.168Z,95003.13
2022-09-25T11:55:04.478Z,95058.28
2022-09-25T11:58:04.766Z,95043.13
2022-09-25T12:00:55.125Z,95046.13
2022-09-25T12:03:43.743Z,95041.16
2022-09-25T12:06:49.195Z,94969.25
2022-09-25T12:09:28.807Z,95047.03
2022-09-25T12:12:04.445Z,95027.50
2022-09-25T12:14:40.200Z,95045.94
2022-09-25T12:17:15.245Z,95041.91
2022-09-25T12:19:52.346Z,95040.53
2022-09-25T12:22:57.725Z,95023.75
2022-09-25T12:25:36.038Z,95019.81
2022-09-25T12:28:16.639Z,95022.56
2022-09-25T12:31:06.415Z,95020.47
2022-09-25T12:33:45.474Z,95021.66
2022-09-25T12:36:21.371Z,95020.00
2022-09-25T12:38:53.268Z,95021.53
2022-09-25T12:41:42.503Z,95018.94
2022-09-25T12:44:27.455Z,95014.09
2022-09-25T12:47:02.184Z,95001.94
2022-09-25T12:49:44.861Z,94999.22
2022-09-25T12:52:25.121Z,94979.63
2022-09-25T12:55:19.417Z,94991.00
2022-09-25T12:57:49.445Z,94997.81
2022-09-25T13:00:21.587Z,94996.44
2022-09-25T13:03:15.120Z,94979.25
2022-09-25T13:05:47.833Z,94968.75
2022-09-25T13:08:27.806Z,94959.16
2022-09-25T13:11:15.056Z,94966.00
2022-09-25T13:14:00.107Z,94960.81
2022-09-25T13:19:15.081Z,94952.38
2022-09-25T13:21:43.351Z,94941.59
2022-09-25T13:24:50.466Z,94935.75
2022-09-25T13:30:32.291Z,94941.78
2022-09-25T13:33:15.422Z,94905.84
2022-09-25T13:35:43.064Z,94920.84
2022-09-25T13:38:38.533Z,94881.09
2022-09-25T13:41:27.519Z,94886.28
2022-09-25T13:44:42.796Z,94926.91
2022-09-25T13:47:25.442Z,94932.06
2022-09-25T13:50:11.235Z,94871.25
2022-09-25T13:52:41.805Z,94924.75
2022-09-25T13:55:22.266Z,94925.22
2022-09-25T13:57:59.127Z,94918.56
2022-09-25T14:00:37.514Z,94909.59
2022-09-25T14:03:12.269Z,94851.72
2022-09-25T14:05:48.380Z,94915.66
2022-09-25T14:08:18.194Z,94874.94
2022-09-25T14:10:50.112Z,94843.19
2022-09-25T14:13:24.182Z,94845.56
2022-09-25T14:15:55.554Z,94827.16
2022-09-25T14:18:55.217Z,94846.16
2022-09-25T14:21:24.001Z,94878.63
2022-09-25T14:23:59.159Z,94889.88
2022-09-25T14:26:29.548Z,94895.78
2022-09-25T14:29:04.404Z,94845.56
2022-09-25T14:31:57.229Z,94832.97
2022-09-25T14:34:39.268Z,94920.41
2022-09-25T14:37:54.126Z,94915.94
2022-09-25T14:40:49.891Z,94922.84
2022-09-25T14:43:43.883Z,94914.72
2022-09-25T14:46:30.383Z,94883.28
2022-09-25T14:49:27.709Z,94909.50
2022-09-25T14:52:20.416Z,94885.44
2022-09-25T14:54:55.588Z,94870.69
2022-09-25T14:57:31.880Z,94892.09
2022-09-25T15:00:12.128Z,94829.66
2022-09-25T15:02:45.617Z,94899.09
2022-09-25T15:05:27.717Z,94913.81
2022-09-25T15:07:59.154Z,94915.59
2022-09-25T15:10:29.024Z,94921.25
2022-09-25T15:13:20.149Z,94924.50
2022-09-25T15:16:10.506Z,94919.78
2022-09-25T15:18:39.897Z,94911.53
2022-09-25T15:21:26.075Z,94907.97
2022-09-25T15:23:55.004Z,94891.13
2022-09-25T15:26:22.735Z,94904.78
2022-09-25T15:28:50.027Z,94907.59
2022-09-25T15:31:16.853Z,94915.84
2022-09-25T15:33:44.434Z,94906.56
2022-09-25T15:36:20.405Z,94910.06
2022-09-25T15:38:53.991Z,94906.00
2022-09-25T15:41:21.975Z,94917.44
2022-09-25T15:43:50.215Z,94904.94
2022-09-25T15:46:34.753Z,94917.53
2022-09-25T15:49:02.743Z,94911.94
2022-09-25T15:51:33.754Z,94923.41
2022-09-25T15:54:04.512Z,94928.53
2022-09-25T15:56:53.501Z,94919.75
2022-09-25T15:59:25.485Z,94900.72
2022-09-25T16:02:11.369Z,94915.91
2022-09-25T16:04:49.443Z,94908.63
2022-09-25T16:07:25.236Z,94915.03
2022-09-25T16:09:55.690Z,94902.00
2022-09-25T16:12:27.718Z,94916.84
2022-09-25T16:14:58.722Z,94925.28
2022-09-25T16:17:33.077Z,94916.66
2022-09-25T16:20:26.595Z,94901.66
2022-09-25T16:22:59.770Z,94935.75
2022-09-25T16:25:31.110Z,94937.31
2022-09-25T16:28:21.517Z,94934.34
2022-09-25T16:31:01.949Z,94923.94
2022-09-25T16:33:33.330Z,94931.56
2022-09-25T16:36:15.878Z,94950.22
2022-09-25T16:39:04.185Z,94916.13
2022-09-25T16:41:31.297Z,94934.44
2022-09-25T16:44:18.385Z,94934.25
2022-09-25T16:47:00.478Z,94942.56
2022-09-25T16:49:27.132Z,94937.63
2022-09-25T16:51:55.773Z,94931.97
2022-09-25T16:54:31.073Z,94945.94
2022-09-25T16:56:59.465Z,94946.16
2022-09-25T16:59:28.569Z,94953.47
2022-09-25T17:02:11.117Z,94954.25
2022-09-25T17:04:39.054Z,94947.72
2022-09-25T17:07:14.534Z,94957.75
2022-09-25T17:09:41.382Z,94959.47
2022-09-25T17:12:20.859Z,94960.69
2022-09-25T17:14:49.356Z,94953.84
2022-09-25T17:17:24.052Z,94959.56
2022-09-25T17:19:50.879Z,94966.00
2022-09-25T17:22:18.139Z,94957.72
2022-09-25T17:24:45.039Z,94951.75
2022-09-25T17:27:18.231Z,94954.94
2022-09-25T17:29:46.875Z,94949.69
2022-09-25T17:32:15.592Z,94946.59
2022-09-25T17:34:45.757Z,94941.84
2022-09-25T17:37:13.074Z,94943.13
2022-09-25T17:39:39.947Z,94959.19
2022-09-25T17:42:06.845Z,94968.53
2022-09-25T17:44:36.800Z,94964.56
2022-09-25T17:47:04.543Z,94973.91
2022-09-25T17:49:34.000Z,94956.66
2022-09-25T17:52:00.904Z,94961.72
2022-09-25T17:54:33.171Z,94967.25
2022-09-25T17:57:00.062Z,94963.78
2022-09-25T17:59:26.932Z,94978.59
2022-09-25T18:01:53.930Z,94975.09
2022-09-25T18:04:24.227Z,94983.16
2022-09-25T18:06:52.097Z,94987.69
2022-09-25T18:09:19.254Z,94988.22
2022-09-25T18:11:46.269Z,94986.00
2022-09-25T18:14:15.017Z,94986.00
2022-09-25T18:16:45.611Z,94988.25
2022-09-25T18:19:38.468Z,94980.50
2022-09-25T18:22:19.290Z,94984.50
2022-09-25T18:24:59.550Z,94990.72
2022-09-25T18:27:29.792Z,94982.47
2022-09-25T18:29:56.592Z,94990.72
2022-09-25T18:32:24.383Z,94989.22
2022-09-25T18:34:51.677Z,94973.69
2022-09-25T18:37:18.486Z,94986.69
2022-09-25T18:39:48.198Z,94988.22
2022-09-25T18:42:15.143Z,94986.69
2022-09-25T18:44:43.171Z,94988.69
2022-09-25T18:47:14.355Z,94996.72
2022-09-25T18:49:44.015Z,94998.44
2022-09-25T18:52:11.894Z,95004.75
2022-09-25T18:54:47.993Z,94993.25
2022-09-25T18:57:18.750Z,95006.28
2022-09-25T18:59:48.464Z,94996.25
2022-09-25T19:02:41.320Z,95002.13
2022-09-25T19:05:09.189Z,94986.84
2022-09-25T19:07:40.401Z,94994.72
2022-09-25T19:10:09.850Z,94996.50
2022-09-25T19:12:36.828Z,95008.03
2022-09-25T19:15:05.045Z,94996.75
2022-09-25T19:17:34.210Z,95004.78
2022-09-25T19:20:01.295Z,94991.31
2022-09-25T19:22:30.967Z,94998.03
2022-09-25T19:24:57.914Z,95002.53
2022-09-25T19:27:27.562Z,94978.75
2022-09-25T19:29:55.153Z,95001.75
2022-09-25T19:32:32.453Z,94996.25
2022-09-25T19:34:59.956Z,95008.78
2022-09-25T19:37:30.074Z,94997.97
2022-09-25T19:40:15.672Z,95010.47
2022-09-25T19:42:42.630Z,94998.47
2022-09-25T19:45:10.474Z,95003.69
2022-09-25T19:47:37.306Z,95005.66
2022-09-25T19:50:08.880Z,95005.59
2022-09-25T19:52:36.697Z,95006.84
2022-09-25T19:55:03.784Z,95006.53
2022-09-25T19:57:30.683Z,95008.75
2022-09-25T19:59:57.716Z,95009.19
2022-09-25T20:02:24.679Z,95011.69
2022-09-25T20:04:51.565Z,95003.38
2022-09-25T20:07:18.403Z,95008.53
2022-09-25T20:09:45.300Z,94992.47
2022-09-25T20:12:12.211Z,95009.47
2022-09-25T20:14:40.303Z,95009.78
2022-09-25T20:17:11.465Z,95000.13
2022-09-25T20:19:38.334Z,95004.84
2022-09-25T20:22:05.127Z,94989.59
2022-09-25T20:24:31.952Z,95004.84
2022-09-25T20:26:58.711Z,95013.59
2022-09-25T20:29:25.778Z,95016.25
2022-09-25T20:31:52.618Z,95012.69
2022-09-25T20:34:21.155Z,94999.97
2022-09-25T20:36:48.093Z,95001.38
2022-09-25T20:39:20.617Z,94994.81
2022-09-25T20:41:48.825Z,95003.97
2022-09-25T20:44:15.722Z,95011.31
2022-09-25T20:46:43.392Z,95014.34
2022-09-25T20:49:13.087Z,95016.03
2022-09-25T20:51:41.361Z,94986.19
2022-09-25T20:54:09.848Z,94997.84
2022-09-25T20:56:38.533Z,94993.88
2022-09-25T20:59:05.626Z,95012.03
2022-09-25T21:01:34.951Z,95013.03
2022-09-25T21:04:03.318Z,95008.03
2022-09-25T21:06:32.330Z,95009.06
2022-09-25T21:09:01.338Z,95000.13
2022-09-25T21:11:30.609Z,95008.44
2022-09-25T21:13:59.425Z,94995.25
2022-09-25T21:16:28.743Z,94984.91
2022-09-25T21:18:57.981Z,94989.38
2022-09-25T21:21:26.320Z,94990.88
2022-09-25T21:23:54.769Z,94970.56
2022-09-25T21:26:23.888Z,94977.09
2022-09-25T21:28:52.995Z,94998.44
2022-09-25T21:31:22.444Z,94986.31
2022-09-25T21:33:53.115Z,94986.13
2022-09-25T21:36:21.033Z,94985.94
2022-09-25T21:38:49.369Z,94979.16
2022-09-25T21:41:18.564Z,94967.47
2022-09-25T21:43:46.273Z,94968.97
2022-09-25T21:46:15.740Z,94942.50
2022-09-25T21:48:48.466Z,94941.38
2022-09-25T21:51:17.181Z,94951.03
2022-09-25T21:53:44.058Z,94945.81
2022-09-25T21:56:17.251Z,94945.56
2022-09-25T21:58:44.609Z,94934.31
2022-09-25T22:01:20.617Z,94951.47
2022-09-25T22:03:49.951Z,94950.25
2022-09-25T22:06:40.611Z,94959.44
2022-09-25T22:09:14.451Z,94944.06
2022-09-25T22:11:42.523Z,94947.47
2022-09-25T22:14:15.499Z,94932.06
2022-09-25T22:16:43.934Z,94944.59
2022-09-25T22:19:22.727Z,94955.44
2022-09-25T22:21:51.004Z,94958.59
2022-09-25T22:24:18.241Z,94952.38
2022-09-25T22:26:47.330Z,94959.59
2022-09-25T22:29:14.911Z,94960.44
2022-09-25T22:31:44.583Z,94956.56
2022-09-25T22:34:21.179Z,94962.50
2022-09-25T22:36:49.277Z,94971.72
2022-09-25T22:39:18.116Z,94979.44
2022-09-25T22:41:45.397Z,94968.44
2022-09-25T22:44:12.108Z,94968.44
2022-09-25T22:46:38.686Z,94966.63
2022-09-25T22:49:05.409Z,94967.41
2022-09-25T22:51:32.059Z,94957.78
2022-09-25T22:53:58.769Z,94961.25
2022-09-25T22:56:30.975Z,94964.44
2022-09-25T22:59:01.531Z,94976.66
2022-09-25T23:01:33.632Z,94969.69
2022-09-25T23:04:01.913Z,94972.91
2022-09-25T23:06:30.658Z,94963.66
2022-09-25T23:08:59.696Z,94962.06
2022-09-25T23:11:26.665Z,94952.03
2022-09-25T23:13:58.817Z,94961.59
2022-09-25T23:16:25.567Z,94951.41
2022-09-25T23:18:52.346Z,94941.91
2022-09-25T23:21:19.126Z,94947.72
2022-09-25T23:23:45.729Z,94956.06
2022-09-25T23:26:12.499Z,94952.22
2022-09-25T23:28:40.541Z,94962.97
2022-09-25T23:31:12.973Z,94954.34
2022-09-25T23:33:40.451Z,94957.28
2022-09-25T23:36:10.340Z,94954.75
2022-09-25T23:38:38.033Z,94961.19
2022-09-25T23:41:21.068Z,94957.06
2022-09-25T23:43:49.436Z,94947.31
2022-09-25T23:46:18.436Z,94955.59
2022-09-25T23:48:45.514Z,94958.56
2022-09-25T23:51:13.405Z,94959.59
2022-09-25T23:53:41.005Z,94963.97
2022-09-25T23:56:14.014Z,94946.66
2022-09-25T23:58:40.980Z,94962.84
